createdAt,value
2023-03-12T00:01:21.017Z,100375.88
2023-03-12T00:03:50.044Z,100373.66
2023-03-12T00:06:19.621Z,100378.56
2023-03-12T00:08:48.625Z,100372.34
2023-03-12T00:11:18.780Z,100378.31
2023-03-12T00:13:52.191Z,100370.84
2023-03-12T00:16:20.933Z,100372.72
2023-03-12T00:18:51.007Z,100370.25
2023-03-12T00:21:20.395Z,100370.25
2023-03-12T00:23:49.688Z,100367.91
2023-03-12T00:26:19.412Z,100377.84
2023-03-12T00:28:49.060Z,100373.41
2023-03-12T00:31:21.165Z,100364.28
2023-03-12T00:33:50.419Z,100366.75
2023-03-12T00:36:19.645Z,100353.41
2023-03-12T00:38:48.180Z,100355.41
2023-03-12T00:41:16.571Z,100344.34
2023-03-12T00:43:45.125Z,100341.78
2023-03-12T00:46:13.805Z,100340.00
2023-03-12T00:48:43.807Z,100336.50
2023-03-12T00:51:12.393Z,100334.84
2023-03-12T00:53:40.843Z,100333.38
2023-03-12T00:56:10.134Z,100336.31
2023-03-12T00:58:38.851Z,100331.72
2023-03-12T01:01:07.424Z,100329.63
2023-03-12T01:03:35.938Z,100330.44
2023-03-12T01:06:06.823Z,100335.34
2023-03-12T01:08:35.512Z,100322.03
2023-03-12T01:11:03.999Z,100330.91
2023-03-12T01:13:32.812Z,100320.97
2023-03-12T01:16:01.235Z,100319.09
2023-03-12T01:18:29.747Z,100324.47
2023-03-12T01:20:59.250Z,100314.38
2023-03-12T01:23:29.334Z,100319.19
2023-03-12T01:25:58.454Z,100314.13
2023-03-12T01:28:27.747Z,100311.44
2023-03-12T01:30:56.161Z,100314.00
2023-03-12T01:33:24.653Z,100316.13
2023-03-12T01:35:53.395Z,100308.63
2023-03-12T01:38:22.050Z,100300.78
2023-03-12T01:40:51.823Z,100302.66
2023-03-12T01:43:26.475Z,100301.25
2023-03-12T01:46:05.721Z,100298.66
2023-03-12T01:48:39.462Z,100296.53
2023-03-12T01:51:09.999Z,100288.91
2023-03-12T01:53:39.797Z,100281.88
2023-03-12T01:56:10.917Z,100280.88
2023-03-12T01:58:44.062Z,100277.69
2023-03-12T02:01:12.985Z,100278.75
2023-03-12T02:03:42.087Z,100274.53
2023-03-12T02:06:15.184Z,100265.28
2023-03-12T02:08:46.783Z,100271.34
2023-03-12T02:11:16.646Z,100259.84
2023-03-12T02:13:45.190Z,100267.28
2023-03-12T02:16:13.844Z,100271.84
2023-03-12T02:18:42.278Z,100259.91
2023-03-12T02:21:17.382Z,100262.94
2023-03-12T02:23:52.066Z,100265.88
2023-03-12T02:26:23.364Z,100248.91
2023-03-12T02:28:52.625Z,100247.25
2023-03-12T02:31:25.933Z,100253.13
2023-03-12T02:33:55.946Z,100250.03
2023-03-12T02:36:24.623Z,100251.91
2023-03-12T02:38:58.953Z,100238.19
2023-03-12T02:41:32.519Z,100238.75
2023-03-12T02:44:04.393Z,100240.38
2023-03-12T02:46:36.592Z,100250.00
2023-03-12T02:49:05.365Z,100244.38
2023-03-12T02:51:33.831Z,100245.09
2023-03-12T02:54:02.275Z,100238.91
2023-03-12T02:56:31.978Z,100241.03
2023-03-12T02:59:02.102Z,100235.81
2023-03-12T03:02:00.493Z,100235.19
2023-03-12T03:04:42.000Z,100224.66
2023-03-12T03:07:12.339Z,100227.34
2023-03-12T03:09:40.733Z,100213.63
2023-03-12T03:12:10.860Z,100217.53
2023-03-12T03:14:39.339Z,100215.75
2023-03-12T03:17:07.857Z,100214.13
2023-03-12T03:19:36.353Z,100205.97
2023-03-12T03:22:05.068Z,100206.28
2023-03-12T03:24:33.708Z,100213.66
2023-03-12T03:27:02.095Z,100198.47
2023-03-12T03:29:32.053Z,100198.31
2023-03-12T03:32:00.555Z,100199.94
2023-03-12T03:34:28.974Z,100194.63
2023-03-12T03:36:57.494Z,100197.25
2023-03-12T03:39:26.161Z,100200.03
2023-03-12T03:41:55.198Z,100201.63
2023-03-12T03:44:24.042Z,100196.66
2023-03-12T03:46:55.283Z,100190.13
2023-03-12T03:49:24.135Z,100195.03
2023-03-12T03:51:52.605Z,100195.13
2023-03-12T03:54:21.037Z,100183.09
2023-03-12T03:56:49.323Z,100186.69
2023-03-12T03:59:25.110Z,100192.97
2023-03-12T04:01:55.891Z,100185.22
2023-03-12T04:04:24.312Z,100188.47
2023-03-12T04:06:52.648Z,100189.81
2023-03-12T04:09:20.939Z,100183.22
2023-03-12T04:11:49.732Z,100188.63
2023-03-12T04:14:18.176Z,100177.91
2023-03-12T04:16:46.598Z,100174.59
2023-03-12T04:19:16.409Z,100172.44
2023-03-12T04:21:44.913Z,100167.06
2023-03-12T04:24:16.002Z,100176.03
2023-03-12T04:26:44.656Z,100177.50
2023-03-12T04:29:13.036Z,100168.00
2023-03-12T04:31:41.445Z,100155.69
2023-03-12T04:34:12.617Z,100155.06
2023-03-12T04:36:44.862Z,100150.19
2023-03-12T04:39:13.210Z,100147.75
2023-03-12T04:41:41.755Z,100146.47
2023-03-12T04:44:12.665Z,100138.28
2023-03-12T04:46:41.965Z,100142.28
2023-03-12T04:49:10.456Z,100145.47
2023-03-12T04:51:38.842Z,100142.53
2023-03-12T04:54:08.540Z,100136.63
2023-03-12T04:56:37.396Z,100137.56
2023-03-12T04:59:06.749Z,100133.63
2023-03-12T05:01:36.890Z,100130.91
2023-03-12T05:04:06.547Z,100127.09
2023-03-12T05:06:35.552Z,100104.91
2023-03-12T05:09:04.583Z,100099.31
2023-03-12T05:11:34.469Z,100108.59
2023-03-12T05:14:03.034Z,100103.72
2023-03-12T05:16:31.728Z,100106.53
2023-03-12T05:19:00.015Z,100101.19
2023-03-12T05:21:28.391Z,100112.84
2023-03-12T05:23:57.323Z,100101.00
2023-03-12T05:26:27.910Z,100091.03
2023-03-12T05:29:04.216Z,100085.72
2023-03-12T05:31:38.044Z,100091.13
2023-03-12T05:34:12.448Z,100090.06
2023-03-12T05:36:41.127Z,100091.13
2023-03-12T05:39:09.444Z,100082.53
2023-03-12T05:41:37.972Z,100097.44
2023-03-12T05:44:07.798Z,100099.38
2023-03-12T05:46:36.162Z,100093.97
2023-03-12T05:49:04.594Z,100087.56
2023-03-12T05:51:32.950Z,100085.94
2023-03-12T05:54:02.186Z,100081.34
2023-03-12T05:56:30.866Z,100071.34
2023-03-12T05:58:59.364Z,100067.06
2023-03-12T06:01:31.357Z,100071.41
2023-03-12T06:04:00.128Z,100063.81
2023-03-12T06:06:30.622Z,100054.13
2023-03-12T06:08:59.269Z,100051.47
2023-03-12T06:11:28.071Z,100038.44
2023-03-12T06:13:57.371Z,100047.34
2023-03-12T06:16:28.258Z,100031.41
2023-03-12T06:18:59.791Z,100033.56
2023-03-12T06:21:30.198Z,100024.41
2023-03-12T06:23:59.283Z,100026.06
2023-03-12T06:26:28.431Z,100020.69
2023-03-12T06:28:58.714Z,100025.31
2023-03-12T06:31:27.107Z,100031.22
2023-03-12T06:33:57.968Z,100030.44
2023-03-12T06:36:26.737Z,100012.38
2023-03-12T06:38:57.130Z,100021.88
2023-03-12T06:41:26.028Z,100023.97
2023-03-12T06:43:54.375Z,100044.00
2023-03-12T06:46:25.032Z,100024.59
2023-03-12T06:48:53.546Z,100023.78
2023-03-12T06:51:25.758Z,100026.13
2023-03-12T06:53:54.158Z,100015.56
2023-03-12T06:56:22.467Z,100013.94
2023-03-12T06:58:51.057Z,100013.69
2023-03-12T07:01:19.686Z,100015.91
2023-03-12T07:03:48.469Z,100014.50
2023-03-12T07:06:18.562Z,100030.78
2023-03-12T07:08:48.976Z,100033.69
2023-03-12T07:11:18.272Z,100029.38
2023-03-12T07:13:46.881Z,100036.91
2023-03-12T07:16:15.313Z,100020.69
2023-03-12T07:18:43.890Z,100018.50
2023-03-12T07:21:12.308Z,100019.38
2023-03-12T07:23:40.829Z,100014.16
2023-03-12T07:26:10.476Z,100016.84
2023-03-12T07:28:38.828Z,100023.50
2023-03-12T07:31:07.666Z,100019.38
2023-03-12T07:33:36.158Z,100014.19
2023-03-12T07:36:05.912Z,100003.59
2023-03-12T07:38:34.997Z,100005.31
2023-03-12T07:41:03.316Z,100004.19
2023-03-12T07:43:33.248Z,99998.28
2023-03-12T07:46:01.804Z,100008.88
2023-03-12T07:48:30.192Z,100002.19
2023-03-12T07:50:58.595Z,99998.41
2023-03-12T07:53:27.160Z,99990.88
2023-03-12T07:55:55.929Z,99987.13
2023-03-12T07:58:24.595Z,99991.47
2023-03-12T08:00:56.304Z,99993.19
2023-03-12T08:03:25.022Z,99988.34
2023-03-12T08:05:58.617Z,99989.66
2023-03-12T08:08:27.442Z,99988.09
2023-03-12T08:10:56.661Z,99982.75
2023-03-12T08:13:25.301Z,99975.47
2023-03-12T08:15:55.219Z,99973.31
2023-03-12T08:18:24.670Z,99979.25
2023-03-12T08:21:01.444Z,99967.94
2023-03-12T08:23:29.759Z,99969.59
2023-03-12T08:25:59.794Z,99974.78
2023-03-12T08:28:28.781Z,99977.78
2023-03-12T08:31:00.748Z,99973.97
2023-03-12T08:33:29.409Z,99974.53
2023-03-12T08:35:57.766Z,99971.28
2023-03-12T08:38:26.274Z,99966.16
2023-03-12T08:41:00.166Z,99972.66
2023-03-12T08:43:29.657Z,99972.91
2023-03-12T08:46:05.401Z,99975.63
2023-03-12T08:48:34.314Z,99976.69
2023-03-12T08:51:04.253Z,99972.38
2023-03-12T08:53:34.435Z,99981.03
2023-03-12T08:56:04.229Z,99965.06
2023-03-12T08:58:32.762Z,99959.13
2023-03-12T09:01:02.618Z,99962.91
2023-03-12T09:03:31.156Z,99951.81
2023-03-12T09:06:09.673Z,99952.63
2023-03-12T09:08:38.240Z,99950.44
2023-03-12T09:11:06.661Z,99948.56
2023-03-12T09:13:57.845Z,99942.06
2023-03-12T09:16:27.429Z,99947.75
2023-03-12T09:18:58.644Z,99947.75
2023-03-12T09:21:27.245Z,99940.44
2023-03-12T09:23:55.610Z,99945.84
2023-03-12T09:26:24.334Z,99944.75
2023-03-12T09:28:52.705Z,99941.25
2023-03-12T09:31:26.729Z,99952.34
2023-03-12T09:33:55.507Z,99935.81
2023-03-12T09:36:23.989Z,99942.03
2023-03-12T09:38:52.337Z,99941.50
2023-03-12T09:41:22.545Z,99949.63
2023-03-12T09:43:55.184Z,99956.69
2023-03-12T09:46:29.663Z,99956.16
2023-03-12T09:49:02.955Z,99949.38
2023-03-12T09:51:36.951Z,99953.44
2023-03-12T09:54:08.194Z,99962.91
2023-03-12T09:56:36.698Z,99963.19
2023-03-12T09:59:05.268Z,99963.19
2023-03-12T10:01:39.585Z,99958.88
2023-03-12T10:04:19.305Z,99964.78
2023-03-12T10:06:56.408Z,99955.88
2023-03-12T10:09:35.584Z,99958.84
2023-03-12T10:12:15.391Z,99972.38
2023-03-12T10:14:55.674Z,99962.63
2023-03-12T10:17:43.725Z,99966.97
2023-03-12T10:20:39.745Z,99979.38
2023-03-12T10:23:12.787Z,99972.59
2023-03-12T10:25:47.904Z,99966.38
2023-03-12T10:28:19.507Z,99959.34
2023-03-12T10:30:54.078Z,99950.13
2023-03-12T10:33:29.155Z,99941.94
2023-03-12T10:35:57.974Z,99959.25
2023-03-12T10:38:30.680Z,99959.25
2023-03-12T10:40:59.153Z,99962.50
2023-03-12T10:43:28.104Z,99961.69
2023-03-12T10:46:06.663Z,99969.47
2023-03-12T10:48:36.284Z,99962.94
2023-03-12T10:51:05.565Z,99969.41
2023-03-12T10:53:35.660Z,99975.41
2023-03-12T10:56:19.994Z,99972.94
2023-03-12T10:58:50.783Z,99984.59
2023-03-12T11:01:22.876Z,99965.59
2023-03-12T11:03:54.004Z,99976.38
2023-03-12T11:06:24.999Z,99988.38
2023-03-12T11:09:16.755Z,99992.94
2023-03-12T11:11:47.579Z,99985.56
2023-03-12T11:14:19.294Z,99991.63
2023-03-12T11:16:48.023Z,99994.88
2023-03-12T11:19:29.371Z,100001.13
2023-03-12T11:22:11.997Z,99987.47
2023-03-12T11:24:56.557Z,99980.16
2023-03-12T11:27:37.794Z,99983.66
2023-03-12T11:30:08.969Z,99970.88
2023-03-12T11:32:42.107Z,99973.03
2023-03-12T11:35:13.630Z,99976.75
2023-03-12T11:37:52.503Z,99973.94
2023-03-12T11:40:33.087Z,99970.72
2023-03-12T11:43:36.024Z,99971.25
2023-03-12T11:46:22.861Z,99971.25
2023-03-12T11:49:04.784Z,99975.31
2023-03-12T11:51:43.223Z,99970.06
2023-03-12T11:54:34.782Z,99975.03
2023-03-12T11:57:09.088Z,99953.03
2023-03-12T11:59:51.672Z,99961.63
2023-03-12T12:02:38.012Z,99960.09
2023-03-12T12:05:28.876Z,99952.69
2023-03-12T12:08:19.475Z,99951.25
2023-03-12T12:10:56.038Z,99956.47
2023-03-12T12:13:32.819Z,99952.34
2023-03-12T12:16:18.303Z,99949.28
2023-03-12T12:18:59.237Z,99958.22
2023-03-12T12:21:44.488Z,99957.75
2023-03-12T12:24:29.999Z,99957.53
2023-03-12T12:27:06.687Z,99957.19
2023-03-12T12:29:51.312Z,99961.09
2023-03-12T12:32:28.662Z,99949.19
2023-03-12T12:35:16.081Z,99943.69
2023-03-12T12:37:50.152Z,99947.94
2023-03-12T12:40:24.169Z,99947.13
2023-03-12T12:43:16.286Z,99941.56
2023-03-12T12:45:47.693Z,99926.16
2023-03-12T12:48:21.532Z,99925.50
2023-03-12T12:50:53.263Z,99917.84
2023-03-12T12:53:26.283Z,99919.44
2023-03-12T12:56:10.200Z,99924.88
2023-03-12T12:58:55.562Z,99916.91
2023-03-12T13:01:27.282Z,99925.34
2023-03-12T13:04:01.078Z,99921.38
2023-03-12T13:06:30.320Z,99921.09
2023-03-12T13:09:14.603Z,99915.84
2023-03-12T13:11:47.745Z,99912.63
2023-03-12T13:14:40.130Z,99914.31
2023-03-12T13:17:21.855Z,99911.53
2023-03-12T13:20:00.783Z,99907.72
2023-03-12T13:22:59.699Z,99906.94
2023-03-12T13:25:39.898Z,99902.56
2023-03-12T13:28:35.227Z,99888.75
2023-03-12T13:31:28.914Z,99900.09
2023-03-12T13:33:59.316Z,99888.78
2023-03-12T13:36:28.842Z,99883.66
2023-03-12T13:38:59.683Z,99870.56
2023-03-12T13:41:32.981Z,99869.34
2023-03-12T13:44:40.440Z,99880.53
2023-03-12T13:47:23.776Z,99875.25
2023-03-12T13:49:57.416Z,99865.72
2023-03-12T13:52:28.818Z,99861.88
2023-03-12T13:55:02.986Z,99858.66
2023-03-12T13:57:43.175Z,99870.91
2023-03-12T14:00:18.302Z,99871.56
2023-03-12T14:02:52.969Z,99864.00
2023-03-12T14:05:22.146Z,99854.53
2023-03-12T14:08:06.369Z,99867.09
2023-03-12T14:10:45.004Z,99866.66
2023-03-12T14:13:30.276Z,99859.09
2023-03-12T14:16:06.739Z,99851.53
2023-03-12T14:18:39.165Z,99858.91
2023-03-12T14:21:11.358Z,99852.97
2023-03-12T14:23:45.290Z,99861.16
2023-03-12T14:26:21.051Z,99859.22
2023-03-12T14:28:58.129Z,99846.38
2023-03-12T14:31:28.999Z,99847.59
2023-03-12T14:34:02.851Z,99853.03
2023-03-12T14:36:39.040Z,99840.75
2023-03-12T14:39:19.892Z,99847.00
2023-03-12T14:41:55.224Z,99854.78
2023-03-12T14:44:25.912Z,99852.41
2023-03-12T14:46:59.356Z,99859.31
2023-03-12T14:49:31.360Z,99865.50
2023-03-12T14:51:59.812Z,99873.69
2023-03-12T14:54:29.842Z,99865.69
2023-03-12T14:56:58.273Z,99864.56
2023-03-12T14:59:29.566Z,99867.59
2023-03-12T15:02:04.992Z,99870.34
2023-03-12T15:04:35.974Z,99870.66
2023-03-12T15:07:07.101Z,99875.38
2023-03-12T15:09:37.331Z,99875.81
2023-03-12T15:12:07.730Z,99884.03
2023-03-12T15:14:40.089Z,99885.00
2023-03-12T15:17:09.413Z,99877.78
2023-03-12T15:19:40.666Z,99872.28
2023-03-12T15:22:14.697Z,99867.03
2023-03-12T15:24:44.090Z,99871.56
2023-03-12T15:27:31.640Z,99880.53
2023-03-12T15:30:01.979Z,99885.38
2023-03-12T15:32:31.837Z,99880.53
2023-03-12T15:35:14.390Z,99893.34
2023-03-12T15:37:53.375Z,99879.03
2023-03-12T15:40:23.980Z,99873.94
2023-03-12T15:42:57.508Z,99877.44
2023-03-12T15:45:32.054Z,99878.56
2023-03-12T15:48:00.648Z,99881.28
2023-03-12T15:50:33.025Z,99865.81
2023-03-12T15:53:04.212Z,99876.25
2023-03-12T15:55:33.458Z,99875.63
2023-03-12T15:58:02.239Z,99864.69
2023-03-12T16:00:31.970Z,99865.50
2023-03-12T16:03:02.324Z,99884.63
2023-03-12T16:05:34.369Z,99884.00
2023-03-12T16:08:07.086Z,99880.63
2023-03-12T16:10:38.631Z,99876.63
2023-03-12T16:13:07.310Z,99880.97
2023-03-12T16:15:38.524Z,99872.91
2023-03-12T16:18:13.214Z,99874.69
2023-03-12T16:20:43.582Z,99874.34
2023-03-12T16:23:12.605Z,99879.16
2023-03-12T16:25:43.747Z,99884.84
2023-03-12T16:28:15.087Z,99881.78
2023-03-12T16:30:43.990Z,99889.50
2023-03-12T16:33:16.068Z,99895.59
2023-03-12T16:35:46.291Z,99892.72
2023-03-12T16:38:15.302Z,99888.00
2023-03-12T16:40:47.562Z,99894.63
2023-03-12T16:43:19.923Z,99886.06
2023-03-12T16:45:49.739Z,99890.59
2023-03-12T16:48:19.971Z,99882.88
2023-03-12T16:50:51.381Z,99888.19
2023-03-12T16:53:20.373Z,99891.72
2023-03-12T16:55:51.867Z,99883.34
2023-03-12T16:58:22.843Z,99887.81
2023-03-12T17:00:53.022Z,99889.25
2023-03-12T17:03:28.756Z,99882.03
2023-03-12T17:05:58.905Z,99880.09
2023-03-12T17:08:27.710Z,99881.72
2023-03-12T17:10:57.620Z,99886.19
2023-03-12T17:13:28.537Z,99882.59
2023-03-12T17:15:57.146Z,99895.75
2023-03-12T17:18:25.724Z,99890.09
2023-03-12T17:20:54.788Z,99890.50
2023-03-12T17:23:24.608Z,99890.56
2023-03-12T17:25:53.309Z,99894.44
2023-03-12T17:28:21.716Z,99905.78
2023-03-12T17:30:50.154Z,99906.31
2023-03-12T17:33:19.817Z,99904.72
2023-03-12T17:35:57.389Z,99920.44
2023-03-12T17:38:27.762Z,99911.25
2023-03-12T17:40:56.010Z,99916.91
2023-03-12T17:43:24.898Z,99916.72
2023-03-12T17:45:53.760Z,99924.22
2023-03-12T17:48:23.257Z,99917.03
2023-03-12T17:50:52.093Z,99928.69
2023-03-12T17:53:20.502Z,99916.97
2023-03-12T17:55:50.199Z,99938.00
2023-03-12T17:58:18.572Z,99930.81
2023-03-12T18:00:47.109Z,99937.59
2023-03-12T18:03:15.537Z,99931.94
2023-03-12T18:05:44.313Z,99935.16
2023-03-12T18:08:12.673Z,99940.88
2023-03-12T18:10:41.169Z,99940.88
2023-03-12T18:13:11.295Z,99950.78
2023-03-12T18:15:39.827Z,99939.75
2023-03-12T18:18:08.455Z,99938.13
2023-03-12T18:20:39.473Z,99939.25
2023-03-12T18:23:08.354Z,99937.91
2023-03-12T18:25:38.270Z,99940.56
2023-03-12T18:28:06.861Z,99940.88
2023-03-12T18:30:36.707Z,99941.47
2023-03-12T18:33:05.264Z,99945.78
2023-03-12T18:35:34.084Z,99945.31
2023-03-12T18:38:02.859Z,99945.78
2023-03-12T18:40:32.941Z,99949.00
2023-03-12T18:43:02.855Z,99964.59
2023-03-12T18:45:31.912Z,99951.56
2023-03-12T18:48:01.736Z,99958.53
2023-03-12T18:50:30.163Z,99957.41
2023-03-12T18:52:58.900Z,99961.47
2023-03-12T18:55:27.449Z,99952.09
2023-03-12T18:57:55.788Z,99953.50
2023-03-12T19:00:24.629Z,99952.28
2023-03-12T19:02:53.239Z,99947.44
2023-03-12T19:05:23.074Z,99938.75
2023-03-12T19:07:51.439Z,99935.50
2023-03-12T19:10:20.033Z,99927.81
2023-03-12T19:12:53.255Z,99931.13
2023-03-12T19:15:24.815Z,99935.50
2023-03-12T19:17:54.412Z,99927.94
2023-03-12T19:20:24.425Z,99920.84
2023-03-12T19:22:52.822Z,99928.06
2023-03-12T19:25:21.206Z,99912.66
2023-03-12T19:27:49.637Z,99923.72
2023-03-12T19:30:18.481Z,99925.81
2023-03-12T19:32:47.476Z,99917.16
2023-03-12T19:35:16.259Z,99921.00
2023-03-12T19:37:46.008Z,99916.75
2023-03-12T19:40:14.682Z,99911.19
2023-03-12T19:42:43.353Z,99920.19
2023-03-12T19:45:13.769Z,99925.34
2023-03-12T19:47:42.500Z,99925.69
2023-03-12T19:50:12.693Z,99926.81
2023-03-12T19:52:41.121Z,99931.78
2023-03-12T19:55:11.857Z,99937.94
2023-03-12T19:57:40.545Z,99930.44
2023-03-12T20:00:12.169Z,99923.34
2023-03-12T20:02:41.207Z,99918.00
2023-03-12T20:05:11.057Z,99922.34
2023-03-12T20:07:40.042Z,99928.63
2023-03-12T20:10:11.478Z,99920.25
2023-03-12T20:12:40.602Z,99922.75
2023-03-12T20:15:09.888Z,99915.97
2023-03-12T20:17:38.495Z,99909.09
2023-03-12T20:20:09.157Z,99903.31
2023-03-12T20:22:38.188Z,99899.88
2023-03-12T20:25:07.792Z,99897.97
2023-03-12T20:27:38.477Z,99900.28
2023-03-12T20:30:08.123Z,99886.13
2023-03-12T20:32:36.750Z,99890.97
2023-03-12T20:35:05.728Z,99883.47
2023-03-12T20:37:34.147Z,99885.88
2023-03-12T20:40:02.467Z,99880.53
2023-03-12T20:42:30.992Z,99881.66
2023-03-12T20:45:00.935Z,99875.38
2023-03-12T20:47:29.586Z,99877.94
2023-03-12T20:49:58.150Z,99890.66
2023-03-12T20:52:26.558Z,99880.53
2023-03-12T20:54:54.934Z,99875.06
2023-03-12T20:57:23.278Z,99860.78
2023-03-12T20:59:51.793Z,99860.78
2023-03-12T21:02:21.817Z,99862.59
2023-03-12T21:04:52.605Z,99850.19
2023-03-12T21:07:21.064Z,99841.69
2023-03-12T21:09:49.824Z,99837.34
2023-03-12T21:12:18.551Z,99840.25
2023-03-12T21:14:47.222Z,99856.34
2023-03-12T21:17:15.836Z,99843.78
2023-03-12T21:19:46.405Z,99839.94
2023-03-12T21:22:15.494Z,99839.56
2023-03-12T21:24:43.834Z,99837.53
2023-03-12T21:27:12.992Z,99829.25
2023-03-12T21:29:41.369Z,99820.75
2023-03-12T21:32:09.719Z,99816.09
2023-03-12T21:34:38.831Z,99820.38
2023-03-12T21:37:09.105Z,99810.47
2023-03-12T21:39:37.522Z,99817.97
2023-03-12T21:42:06.882Z,99818.22
2023-03-12T21:44:36.356Z,99808.75
2023-03-12T21:47:05.004Z,99814.38
2023-03-12T21:49:34.891Z,99799.91
2023-03-12T21:52:05.155Z,99800.72
2023-03-12T21:54:37.261Z,99804.81
2023-03-12T21:57:06.508Z,99799.97
2023-03-12T21:59:35.114Z,99808.03
2023-03-12T22:02:03.689Z,99797.41
2023-03-12T22:04:32.472Z,99797.13
2023-03-12T22:07:00.920Z,99789.84
2023-03-12T22:09:29.720Z,99780.72
2023-03-12T22:11:59.416Z,99780.84
2023-03-12T22:14:27.975Z,99767.69
2023-03-12T22:16:56.616Z,99765.78
2023-03-12T22:19:25.035Z,99770.41
2023-03-12T22:21:53.471Z,99768.50
2023-03-12T22:24:22.005Z,99764.03
2023-03-12T22:26:50.342Z,99755.16
2023-03-12T22:29:20.260Z,99747.78
2023-03-12T22:31:48.633Z,99744.09
2023-03-12T22:34:17.042Z,99751.81
2023-03-12T22:36:45.493Z,99746.22
2023-03-12T22:39:13.917Z,99738.00
2023-03-12T22:41:42.507Z,99732.09
2023-03-12T22:44:11.137Z,99729.06
2023-03-12T22:46:40.965Z,99730.00
2023-03-12T22:49:09.456Z,99726.34
2023-03-12T22:51:37.946Z,99720.50
2023-03-12T22:54:06.430Z,99720.03
2023-03-12T22:56:34.887Z,99709.28
2023-03-12T22:59:03.312Z,99703.63
2023-03-12T23:01:31.716Z,99704.13
2023-03-12T23:04:03.910Z,99699.34
2023-03-12T23:06:32.934Z,99679.09
2023-03-12T23:09:01.427Z,99686.31
2023-03-12T23:11:30.863Z,99683.25
2023-03-12T23:13:59.183Z,99671.53
2023-03-12T23:16:27.933Z,99676.53
2023-03-12T23:18:57.025Z,99664.50
2023-03-12T23:21:27.269Z,99657.56
2023-03-12T23:23:55.715Z,99659.66
2023-03-12T23:26:27.000Z,99659.66
2023-03-12T23:28:56.172Z,99647.44
2023-03-12T23:31:27.422Z,99643.91
2023-03-12T23:33:56.675Z,99629.94
2023-03-12T23:36:26.602Z,99627.50
2023-03-12T23:38:55.039Z,99634.72
2023-03-12T23:41:25.634Z,99619.50
2023-03-12T23:43:54.180Z,99619.97
2023-03-12T23:46:22.912Z,99619.66
2023-03-12T23:48:51.384Z,99606.16
2023-03-12T23:51:21.936Z,99605.19
2023-03-12T23:53:53.248Z,99592.81
2023-03-12T23:56:24.300Z,99598.44
2023-03-12T23:58:52.790Z,99588.47
